LIO weather

Limon International Airport
Puerto Limon, Limon, Costa Rica

Public forecast

Using degrees Celsius for public forecast. Weather courtesy of forecast.io.

METAR (pilot weather report)

Retrieved 2019/03/19 15:00 UTC (9 minutes ago):

MRLM 191500Z 32003KT 9999 FEW015 OVC100 25/22 A2999

TAF (pilot weather forecast)

Forecast is more than 6 hours old.

Retrieved 2019/03/19 06:21 UTC (9 hours ago):

TAF MRLM 190500Z 1906/2006 25005KT 9999 FEW020 TX29/1919Z TN22/1911Z TEMPO 1906/1913 DZ BKN020 BECMG 1914/1916 09005KT BECMG 1923/2001 26004KT